Time;durP1;ratioP1;P1;durP2;ratioP2;P2;SDS_P1;SDS_P2;PMS_P1;PMS_P2;Temp;Humidity;BMP_temperature;BMP_pressure;BME280_temperature;BME280_humidity;BME280_pressure;Samples;Min_cycle;Max_cycle;Signal;HPM_P1;HPM_P2
2021/07/19 00:01:14;;;;;;;;;;;;;;;-144.99;67.02;52321.72;5063205;28;20270;-59
2021/07/19 00:03:42;;;;;;;;;;;;;;;-144.99;67.04;52264.66;5061839;28;20022;-58
2021/07/19 00:06:08;;;;;;;;;;;;;;;-144.99;67.06;52276.88;5062191;28;20023;-61
2021/07/19 00:08:35;;;;;;;;;;;;;;;-144.99;67.07;52256.50;5060312;28;19933;-58
2021/07/19 00:11:01;;;;;;;;;;;;;;;-144.99;66.99;52291.16;5058006;28;19928;-58
2021/07/19 00:13:28;;;;;;;;;;;;;;;-144.99;66.81;52285.03;5060314;28;19979;-57
2021/07/19 00:15:54;;;;;;;;;;;;;;;-144.99;66.90;52223.88;5062469;28;20289;-57
2021/07/19 00:18:21;;;;;;;;;;;;;;;-144.99;66.80;52264.66;5063118;28;19938;-60
2021/07/19 00:20:49;;;;;;;;;;;;;;;-144.99;66.68;52321.72;5058005;28;20344;-58
2021/07/19 00:23:16;;;;;;;;;;;;;;;-144.99;66.45;52266.69;5060128;28;20305;-59
2021/07/19 00:25:42;;;;;;;;;;;;;;;-144.99;66.36;52260.56;5061251;28;19951;-58
2021/07/19 00:28:09;;;;;;;;;;;;;;;-144.99;66.46;52260.56;5057431;28;19928;-58
2021/07/19 00:30:37;;;;;;;;;;;;;;;-144.99;66.36;52252.44;5060269;28;19931;-58
2021/07/19 00:33:03;;;;;;;;;;;;;;;-144.99;66.43;52244.28;5053925;28;19934;-59
2021/07/19 00:35:30;;;;;;;;;;;;;;;-144.99;66.14;52285.03;5062470;28;20003;-58
2021/07/19 00:37:57;;;;;;;;;;;;;;;-144.99;65.98;52289.13;5063163;28;19939;-62
2021/07/19 00:40:25;;;;;;;;;;;;;;;-144.99;66.11;52240.19;5058778;28;19940;-62
2021/07/19 00:42:52;;;;;;;;;;;;;;;-144.99;66.01;52289.13;5062364;28;19942;-61
2021/07/19 00:45:19;;;;;;;;;;;;;;;-144.99;65.40;52266.69;4711668;28;10000376;-60
2021/07/19 00:47:46;;;;;;;;;;;;;;;-144.99;65.66;52295.22;5058996;28;20460;-60
2021/07/19 00:50:13;;;;;;;;;;;;;;;-144.99;65.63;52242.22;5057440;28;19944;-59
2021/07/19 00:52:40;;;;;;;;;;;;;;;-144.99;65.62;52293.19;5059858;28;20346;-59
2021/07/19 00:55:09;;;;;;;;;;;;;;;-144.99;65.52;52268.72;5061321;28;20019;-59
2021/07/19 00:57:37;;;;;;;;;;;;;;;-144.99;65.57;52242.22;5060938;28;19936;-59
2021/07/19 01:00:05;;;;;;;;;;;;;;;-144.99;65.62;52297.25;5057996;28;20107;-59
2021/07/19 01:02:32;;;;;;;;;;;;;;;-144.99;65.56;52248.34;5065211;28;20015;-59
2021/07/19 01:05:00;;;;;;;;;;;;;;;-144.99;65.62;52250.38;5059485;28;20030;-59
2021/07/19 01:07:28;;;;;;;;;;;;;;;-144.99;65.36;52264.66;5064800;28;19939;-60
2021/07/19 01:09:55;;;;;;;;;;;;;;;-144.99;65.29;52252.44;5060440;28;19943;-59
2021/07/19 01:12:24;;;;;;;;;;;;;;;-144.99;65.28;52223.88;5060548;28;19939;-59
2021/07/19 01:14:50;;;;;;;;;;;;;;;-144.99;65.59;52305.41;5059957;28;19933;-58
2021/07/19 01:17:17;;;;;;;;;;;;;;;-144.99;65.68;52246.31;5066298;28;20389;-58
2021/07/19 01:19:46;;;;;;;;;;;;;;;-144.99;65.66;52264.66;5062993;28;19938;-59
2021/07/19 01:22:37;;;;;;;;;;;;;;;-144.99;65.55;52264.66;5060588;28;19924;-58
2021/07/19 01:25:09;;;;;;;;;;;;;;;-144.99;65.51;52256.50;5063006;28;19933;-59
2021/07/19 01:28:03;;;;;;;;;;;;;;;-144.99;65.70;52264.66;5061773;28;19939;-59
2021/07/19 01:30:32;;;;;;;;;;;;;;;-144.99;65.64;52236.13;5060796;28;19925;-59
2021/07/19 01:33:00;;;;;;;;;;;;;;;-144.99;65.46;52268.72;5057607;28;19932;-60
2021/07/19 01:35:27;;;;;;;;;;;;;;;-144.99;65.49;52244.28;5061435;28;19931;-59
2021/07/19 01:37:54;;;;;;;;;;;;;;;-144.99;65.53;52268.72;5061455;28;20023;-59
2021/07/19 01:40:21;;;;;;;;;;;;;;;-144.99;65.75;52252.44;5064498;28;19924;-59
2021/07/19 01:42:48;;;;;;;;;;;;;;;-144.99;65.51;52246.31;5062019;28;19928;-60
2021/07/19 01:45:14;;;;;;;;;;;;;;;-144.99;65.47;52280.97;5063143;28;19928;-59
2021/07/19 01:47:43;;;;;;;;;;;;;;;-144.99;65.39;52283.00;5061070;28;20019;-59
2021/07/19 01:50:10;;;;;;;;;;;;;;;-144.99;65.41;52280.97;5063271;28;19947;-59
2021/07/19 01:52:36;;;;;;;;;;;;;;;-144.99;65.68;52299.31;5061333;28;20267;-59
2021/07/19 01:55:03;;;;;;;;;;;;;;;-144.99;65.51;52260.56;5062533;28;20014;-60
2021/07/19 01:57:30;;;;;;;;;;;;;;;-144.99;65.62;52244.28;5062191;28;20207;-61
2021/07/19 01:59:58;;;;;;;;;;;;;;;-144.99;65.57;52254.47;5063658;28;20002;-61
2021/07/19 02:02:26;;;;;;;;;;;;;;;-144.99;65.55;52244.28;5060768;28;20368;-61
2021/07/19 02:04:53;;;;;;;;;;;;;;;-144.99;65.72;52260.56;5059585;28;20317;-61
2021/07/19 02:07:21;;;;;;;;;;;;;;;-144.99;65.95;52264.66;5061897;28;20286;-60
2021/07/19 02:09:48;;;;;;;;;;;;;;;-144.99;66.02;52252.44;5065190;28;19928;-61
2021/07/19 02:12:15;;;;;;;;;;;;;;;-144.99;66.05;52276.88;5065606;28;19939;-61
2021/07/19 02:14:43;;;;;;;;;;;;;;;-144.99;66.27;52276.88;5062134;28;19970;-61
2021/07/19 02:17:11;;;;;;;;;;;;;;;-144.99;66.37;52248.34;5063611;28;19931;-61
2021/07/19 02:19:38;;;;;;;;;;;;;;;-144.99;66.34;52227.97;5063352;28;19924;-61
2021/07/19 02:22:07;;;;;;;;;;;;;;;-144.99;66.49;52297.25;5067781;28;19928;-61
2021/07/19 02:24:33;;;;;;;;;;;;;;;-144.99;66.55;52254.47;5064786;28;19955;-60
2021/07/19 02:27:00;;;;;;;;;;;;;;;-144.99;66.49;52266.69;5066553;28;19924;-60
2021/07/19 02:29:27;;;;;;;;;;;;;;;-144.99;66.80;52311.53;5064160;28;19925;-61
2021/07/19 02:31:54;;;;;;;;;;;;;;;-144.99;66.73;52256.50;5065351;28;19935;-61
2021/07/19 02:34:21;;;;;;;;;;;;;;;-144.99;66.68;52289.13;5066541;28;19924;-61
2021/07/19 02:36:48;;;;;;;;;;;;;;;-144.99;66.66;52246.31;5066663;28;20500;-61
2021/07/19 02:39:17;;;;;;;;;;;;;;;-144.99;66.98;52276.88;5065625;28;19931;-60
2021/07/19 02:41:44;;;;;;;;;;;;;;;-144.99;66.79;52272.81;5068260;28;19929;-61
2021/07/19 02:44:12;;;;;;;;;;;;;;;-144.99;66.92;52280.97;5066089;28;19924;-63
2021/07/19 02:46:39;;;;;;;;;;;;;;;-144.99;66.95;52242.22;5067054;28;19924;-61
2021/07/19 02:49:09;;;;;;;;;;;;;;;-144.99;67.00;52272.81;5062038;28;20398;-62
2021/07/19 02:51:36;;;;;;;;;;;;;;;-144.99;66.85;52215.75;5066201;28;19939;-61
2021/07/19 02:54:03;;;;;;;;;;;;;;;-144.99;66.98;52236.13;5066956;28;19967;-62
2021/07/19 02:56:34;;;;;;;;;;;;;;;-144.99;67.02;52272.81;5066333;28;19924;-63
2021/07/19 02:59:00;;;;;;;;;;;;;;;-144.99;66.90;52252.44;5066209;28;19925;-62
2021/07/19 03:01:27;;;;;;;;;;;;;;;-144.99;66.88;52252.44;5066310;28;19935;-62
2021/07/19 03:03:56;;;;;;;;;;;;;;;-144.99;66.82;52272.81;5066853;28;19928;-62
2021/07/19 03:06:26;;;;;;;;;;;;;;;-144.99;66.87;52276.88;5060672;28;19936;-61
2021/07/19 03:08:53;;;;;;;;;;;;;;;-144.99;66.63;52276.88;5062292;28;19936;-62
2021/07/19 03:11:21;;;;;;;;;;;;;;;-144.99;66.50;52256.50;5067070;28;19937;-60
2021/07/19 03:13:57;;;;;;;;;;;;;;;-144.99;66.05;52236.13;5065455;28;19930;-60
2021/07/19 03:16:26;;;;;;;;;;;;;;;-144.99;66.13;52276.88;5063840;28;19936;-61
2021/07/19 03:18:53;;;;;;;;;;;;;;;-144.99;65.62;52260.56;5062646;28;19928;-63
2021/07/19 03:21:21;;;;;;;;;;;;;;;-144.99;65.79;52317.66;5061386;28;19924;-62
2021/07/19 03:23:48;;;;;;;;;;;;;;;-144.99;65.70;52301.34;5062435;28;19924;-63
2021/07/19 03:26:15;;;;;;;;;;;;;;;-144.99;65.61;52301.34;5064112;28;19924;-62
2021/07/19 03:28:42;;;;;;;;;;;;;;;-144.99;65.47;52248.34;5064731;28;19970;-64
2021/07/19 03:31:10;;;;;;;;;;;;;;;-144.99;65.50;52276.88;5063705;28;19924;-62
2021/07/19 03:33:39;;;;;;;;;;;;;;;-144.99;65.52;52280.97;5061880;28;19933;-62
2021/07/19 03:36:06;;;;;;;;;;;;;;;-144.99;65.51;52268.72;5066402;28;19939;-60
2021/07/19 03:38:32;;;;;;;;;;;;;;;-144.99;65.65;52264.66;5063584;28;20595;-61
2021/07/19 03:40:59;;;;;;;;;;;;;;;-144.99;65.56;52285.03;5065098;28;19924;-61
2021/07/19 03:43:25;;;;;;;;;;;;;;;-144.99;65.64;52272.81;5066346;28;19932;-61
2021/07/19 03:45:52;;;;;;;;;;;;;;;-144.99;65.64;52252.44;5064711;28;19932;-61
2021/07/19 03:48:20;;;;;;;;;;;;;;;-144.99;65.62;52293.19;5064656;28;19930;-61
2021/07/19 03:50:46;;;;;;;;;;;;;;;-144.99;65.75;52268.72;5065486;28;19928;-60
2021/07/19 03:53:13;;;;;;;;;;;;;;;-144.99;65.80;52256.50;5066968;28;20115;-62
2021/07/19 03:55:40;;;;;;;;;;;;;;;-144.99;66.06;52266.69;5068059;28;19944;-58
2021/07/19 03:58:07;;;;;;;;;;;;;;;-144.99;65.96;52244.28;5065154;28;19939;-60
2021/07/19 04:00:33;;;;;;;;;;;;;;;-144.99;66.15;52248.34;5063440;28;19959;-60
2021/07/19 04:03:04;;;;;;;;;;;;;;;-144.99;66.02;52309.50;5066331;28;19931;-60
2021/07/19 04:05:40;;;;;;;;;;;;;;;-144.99;66.03;52317.66;5062475;28;19969;-60
2021/07/19 04:08:08;;;;;;;;;;;;;;;-144.99;66.36;52268.72;5061945;28;20469;-60
2021/07/19 04:10:35;;;;;;;;;;;;;;;-144.99;66.38;52260.56;5065581;28;20011;-60
2021/07/19 04:13:06;;;;;;;;;;;;;;;-144.99;66.55;52301.34;5066084;28;19932;-61
2021/07/19 04:15:33;;;;;;;;;;;;;;;-144.99;66.71;52285.03;5061827;28;19933;-59
2021/07/19 04:17:59;;;;;;;;;;;;;;;-144.99;66.48;52297.25;5060900;28;20011;-60
2021/07/19 04:20:26;;;;;;;;;;;;;;;-144.99;66.50;52266.69;5064869;28;19940;-60
2021/07/19 04:22:54;;;;;;;;;;;;;;;-144.99;66.72;52276.88;5062735;28;19925;-61
2021/07/19 04:25:20;;;;;;;;;;;;;;;-144.99;66.94;52256.50;5066013;28;19931;-60
2021/07/19 04:27:47;;;;;;;;;;;;;;;-144.99;67.05;52260.56;5062646;28;19933;-61
2021/07/19 04:30:14;;;;;;;;;;;;;;;-144.99;66.95;52240.19;5063911;28;20286;-61
2021/07/19 04:32:44;;;;;;;;;;;;;;;-144.99;66.88;52244.28;5063447;28;20350;-60
2021/07/19 04:35:13;;;;;;;;;;;;;;;-144.99;66.94;52268.72;5065781;28;19924;-60
2021/07/19 04:37:40;;;;;;;;;;;;;;;-144.99;66.79;52219.81;5063928;28;19968;-59
2021/07/19 04:40:08;;;;;;;;;;;;;;;-144.99;66.75;52207.59;5064590;28;19939;-60
2021/07/19 04:42:37;;;;;;;;;;;;;;;-144.99;66.92;52227.97;5060022;28;19925;-60
2021/07/19 04:45:05;;;;;;;;;;;;;;;-144.99;66.77;52276.88;5065573;28;19931;-63
2021/07/19 04:47:31;;;;;;;;;;;;;;;-144.99;66.48;52264.66;5064121;28;20028;-64
2021/07/19 04:49:58;;;;;;;;;;;;;;;-144.99;66.45;52264.66;5065102;28;20425;-64
2021/07/19 04:52:24;;;;;;;;;;;;;;;-144.99;66.46;52280.97;5060852;28;20111;-64
2021/07/19 04:54:51;;;;;;;;;;;;;;;-144.99;66.18;52260.56;5065107;28;19933;-64
2021/07/19 04:57:19;;;;;;;;;;;;;;;-144.99;66.09;52250.38;5057832;28;19928;-64
2021/07/19 04:59:49;;;;;;;;;;;;;;;-144.99;65.93;52236.13;5059996;28;19925;-64
2021/07/19 05:02:18;;;;;;;;;;;;;;;-144.99;66.13;52232.03;5060601;28;19925;-65
2021/07/19 05:04:47;;;;;;;;;;;;;;;-144.99;66.11;52244.28;5062404;28;19929;-65
2021/07/19 05:07:16;;;;;;;;;;;;;;;-144.99;65.73;52289.13;5064428;28;19994;-65
2021/07/19 05:09:43;;;;;;;;;;;;;;;-144.99;66.13;52252.44;4362894;28;10000325;-65
2021/07/19 05:12:11;;;;;;;;;;;;;;;-144.99;66.11;52276.88;5065700;28;19928;-65
2021/07/19 05:14:40;;;;;;;;;;;;;;;-144.99;66.10;52268.72;5063531;28;20426;-65
2021/07/19 05:17:09;;;;;;;;;;;;;;;-144.99;66.18;52230.00;5066111;28;19943;-65
2021/07/19 05:19:37;;;;;;;;;;;;;;;-144.99;66.38;52248.34;5065055;28;19924;-65
2021/07/19 05:22:04;;;;;;;;;;;;;;;-144.99;66.36;52285.03;5053004;28;19965;-65
2021/07/19 05:24:31;;;;;;;;;;;;;;;-144.99;66.25;52260.56;5062207;28;19939;-65
2021/07/19 05:26:57;;;;;;;;;;;;;;;-144.99;66.14;52272.81;5062894;28;19932;-65
2021/07/19 05:29:23;;;;;;;;;;;;;;;-144.99;66.02;52270.78;5056507;28;19931;-65
2021/07/19 05:31:51;;;;;;;;;;;;;;;-144.99;65.98;52248.34;5059309;28;20424;-66
2021/07/19 05:34:17;;;;;;;;;;;;;;;-144.99;66.08;52236.13;5063554;28;19931;-64
2021/07/19 05:36:44;;;;;;;;;;;;;;;-144.99;66.07;52248.34;5065828;28;19924;-65
2021/07/19 05:39:10;;;;;;;;;;;;;;;-144.99;66.19;52256.50;5065337;28;20023;-65
2021/07/19 05:41:37;;;;;;;;;;;;;;;-144.99;65.91;52250.38;5065195;28;20352;-65
2021/07/19 05:44:03;;;;;;;;;;;;;;;-144.99;65.92;52211.66;5061093;28;19975;-64
2021/07/19 05:46:30;;;;;;;;;;;;;;;-144.99;65.71;52240.19;5064273;28;19928;-65
2021/07/19 05:48:57;;;;;;;;;;;;;;;-144.99;65.59;52240.19;5061599;28;19935;-65
2021/07/19 05:51:24;;;;;;;;;;;;;;;-144.99;65.18;52248.34;5059451;28;20340;-65
2021/07/19 05:53:50;;;;;;;;;;;;;;;-144.99;65.25;52264.66;5053959;28;19932;-64
2021/07/19 05:56:17;;;;;;;;;;;;;;;-144.99;65.30;52240.19;5059052;28;20035;-65
2021/07/19 05:58:43;;;;;;;;;;;;;;;-144.99;65.05;52242.22;5060334;28;19935;-65
2021/07/19 06:01:10;;;;;;;;;;;;;;;-144.99;64.63;52211.66;5062161;28;19929;-65
2021/07/19 06:03:36;;;;;;;;;;;;;;;-144.99;64.10;52236.13;5060395;28;19940;-65
2021/07/19 06:06:04;;;;;;;;;;;;;;;-144.99;63.79;52248.34;5063229;28;20390;-65
2021/07/19 06:08:30;;;;;;;;;;;;;;;-144.99;63.78;52225.94;5066182;28;20393;-64
2021/07/19 06:10:56;;;;;;;;;;;;;;;-144.99;63.46;52252.44;5067136;28;19936;-64
2021/07/19 06:13:23;;;;;;;;;;;;;;;-144.99;63.08;52221.84;5065397;28;19928;-66
2021/07/19 06:15:49;;;;;;;;;;;;;;;-144.99;62.63;52230.00;5066047;28;19943;-66
2021/07/19 06:18:16;;;;;;;;;;;;;;;-144.99;62.36;52187.19;5065581;28;19935;-65
2021/07/19 06:20:43;;;;;;;;;;;;;;;-144.99;62.08;52227.97;5062324;28;20039;-64
2021/07/19 06:23:11;;;;;;;;;;;;;;;-144.99;61.83;52227.97;5068524;28;19931;-64
2021/07/19 06:25:41;;;;;;;;;;;;;;;-144.99;61.46;52219.81;5063238;28;19924;-65
2021/07/19 06:28:08;;;;;;;;;;;;;;;-144.99;61.10;52236.13;4719926;28;9999974;-65
2021/07/19 06:30:34;;;;;;;;;;;;;;;-144.99;60.98;52236.13;5063009;28;20284;-65
2021/07/19 06:33:01;;;;;;;;;;;;;;;-144.99;60.59;52234.09;5057771;28;19971;-65
2021/07/19 06:35:28;;;;;;;;;;;;;;;-144.99;60.44;52254.47;5061390;28;20026;-65
2021/07/19 06:37:55;;;;;;;;;;;;;;;-144.99;59.78;52211.66;5063206;28;19929;-65
2021/07/19 06:40:23;;;;;;;;;;;;;;;-144.99;59.21;52223.88;5066304;28;20038;-65
2021/07/19 06:42:49;;;;;;;;;;;;;;;-144.99;58.22;52227.97;5066601;28;20016;-65
2021/07/19 06:45:16;;;;;;;;;;;;;;;-144.99;57.50;52203.50;5063088;28;20282;-65
2021/07/19 06:47:43;;;;;;;;;;;;;;;-144.99;57.15;52203.50;5068278;28;20186;-65
2021/07/19 06:50:11;;;;;;;;;;;;;;;-144.99;56.50;52199.44;5064578;28;19930;-68
2021/07/19 06:52:38;;;;;;;;;;;;;;;-144.99;56.05;52236.13;5064977;28;20306;-64
2021/07/19 06:55:05;;;;;;;;;;;;;;;-144.99;56.02;52187.19;5065925;28;20168;-64
2021/07/19 06:57:32;;;;;;;;;;;;;;;-144.99;56.03;52221.84;5067014;28;20255;-64
2021/07/19 06:59:59;;;;;;;;;;;;;;;-144.99;56.02;52223.88;5068167;28;20368;-64
2021/07/19 07:02:25;;;;;;;;;;;;;;;-144.99;55.69;52177.00;5068969;28;19932;-64
2021/07/19 07:04:52;;;;;;;;;;;;;;;-144.99;55.70;52195.34;5066905;28;20430;-64
2021/07/19 07:07:18;;;;;;;;;;;;;;;-144.99;55.73;52211.66;5067959;28;19924;-64
2021/07/19 07:09:45;;;;;;;;;;;;;;;-144.99;55.55;52203.50;5063606;28;20369;-64
2021/07/19 07:12:11;;;;;;;;;;;;;;;-144.99;55.21;52248.34;5061389;28;19939;-64
2021/07/19 07:14:39;;;;;;;;;;;;;;;-144.99;55.06;52187.19;5066096;28;19932;-65
2021/07/19 07:17:05;;;;;;;;;;;;;;;-144.99;55.28;52197.41;5066319;28;19928;-65
2021/07/19 07:19:32;;;;;;;;;;;;;;;-144.99;54.91;52234.09;5063360;28;20031;-64
2021/07/19 07:21:58;;;;;;;;;;;;;;;-144.99;55.27;52227.97;5065706;28;19928;-64
2021/07/19 07:24:25;;;;;;;;;;;;;;;-144.99;54.38;52219.81;5065519;28;19925;-65
2021/07/19 07:26:54;;;;;;;;;;;;;;;-144.99;54.61;52227.97;5063354;28;19939;-64
2021/07/19 07:29:20;;;;;;;;;;;;;;;-144.99;54.31;52234.09;5063935;28;19935;-64
2021/07/19 07:31:48;;;;;;;;;;;;;;;-144.99;54.83;52223.88;5060546;28;20014;-65
2021/07/19 07:34:14;;;;;;;;;;;;;;;-144.99;54.85;52183.13;5064928;28;19935;-64
2021/07/19 07:36:41;;;;;;;;;;;;;;;-144.99;54.61;52195.34;5065349;28;20039;-65
2021/07/19 07:39:08;;;;;;;;;;;;;;;-144.99;54.34;52203.50;5067948;28;19935;-65
2021/07/19 07:41:34;;;;;;;;;;;;;;;-144.99;53.64;52201.47;5066536;28;19924;-64
2021/07/19 07:44:00;;;;;;;;;;;;;;;-144.99;53.25;52227.97;5063755;28;19928;-64
2021/07/19 07:46:27;;;;;;;;;;;;;;;-144.99;53.45;52232.03;5062617;28;20412;-65
2021/07/19 07:48:54;;;;;;;;;;;;;;;-144.99;53.30;52219.81;5061287;28;20003;-65
2021/07/19 07:51:21;;;;;;;;;;;;;;;-144.99;53.66;52172.94;5066149;28;19924;-64
2021/07/19 07:53:47;;;;;;;;;;;;;;;-144.99;53.59;52191.28;5063874;28;19924;-64
2021/07/19 07:56:14;;;;;;;;;;;;;;;-144.99;53.97;52205.53;5066937;28;20709;-65
2021/07/19 07:58:40;;;;;;;;;;;;;;;-144.99;53.58;52177.00;5066775;28;19934;-64
2021/07/19 08:01:07;;;;;;;;;;;;;;;-144.99;53.54;52207.59;5067319;28;20498;-64
2021/07/19 08:03:33;;;;;;;;;;;;;;;-144.99;53.13;52232.03;5063541;28;20332;-65
2021/07/19 08:06:01;;;;;;;;;;;;;;;-144.99;53.31;52207.59;5067687;28;19929;-64
2021/07/19 08:08:27;;;;;;;;;;;;;;;-144.99;53.24;52195.34;5067764;28;19976;-63
2021/07/19 08:10:54;;;;;;;;;;;;;;;-144.99;53.67;52191.28;5066456;28;19955;-64
2021/07/19 08:13:20;;;;;;;;;;;;;;;-144.99;52.42;52215.75;5062794;28;20297;-65
2021/07/19 08:15:48;;;;;;;;;;;;;;;-144.99;52.62;52158.66;5065404;28;19935;-65
2021/07/19 08:18:15;;;;;;;;;;;;;;;-144.99;51.75;52174.97;5062052;28;19924;-65
2021/07/19 08:20:41;;;;;;;;;;;;;;;-144.99;51.15;52197.41;5064025;28;19928;-65
2021/07/19 08:23:09;;;;;;;;;;;;;;;-144.99;51.83;52203.50;5066624;28;19928;-65
2021/07/19 08:25:35;;;;;;;;;;;;;;;-144.99;51.63;52207.59;5067441;28;19934;-65
2021/07/19 08:28:02;;;;;;;;;;;;;;;-144.99;51.70;52207.59;5054567;28;19928;-65
2021/07/19 08:30:28;;;;;;;;;;;;;;;-144.99;51.61;52207.59;5066077;28;20027;-65
2021/07/19 08:32:55;;;;;;;;;;;;;;;-144.99;51.86;52211.66;5066083;28;19928;-64
2021/07/19 08:35:21;;;;;;;;;;;;;;;-144.99;52.10;52207.59;5066387;28;19932;-64
2021/07/19 08:37:49;;;;;;;;;;;;;;;-144.99;52.11;52215.75;5063545;28;19966;-65
2021/07/19 08:40:20;;;;;;;;;;;;;;;-144.99;51.75;52207.59;5063651;28;19925;-64
2021/07/19 08:42:46;;;;;;;;;;;;;;;-144.99;51.41;52174.97;5056635;28;20467;-65
2021/07/19 08:45:13;;;;;;;;;;;;;;;-144.99;51.27;52195.34;5067734;28;19934;-66
2021/07/19 08:47:41;;;;;;;;;;;;;;;-144.99;51.03;52211.66;5066755;28;20033;-65
2021/07/19 08:50:08;;;;;;;;;;;;;;;-144.99;51.10;52195.34;5066063;28;19951;-65
2021/07/19 08:52:35;;;;;;;;;;;;;;;-144.99;51.49;52213.69;5064658;28;20358;-65
2021/07/19 08:55:02;;;;;;;;;;;;;;;-144.99;51.17;52199.44;5064946;28;20023;-64
2021/07/19 08:57:30;;;;;;;;;;;;;;;-144.99;51.51;52240.19;5063654;28;20015;-64
2021/07/19 08:59:58;;;;;;;;;;;;;;;-144.99;52.10;52207.59;5063916;28;19971;-65
2021/07/19 09:02:24;;;;;;;;;;;;;;;-144.99;51.97;52203.50;5065992;28;19983;-64
2021/07/19 09:04:51;;;;;;;;;;;;;;;-144.99;51.84;52199.44;5067281;28;20236;-64
2021/07/19 09:07:18;;;;;;;;;;;;;;;-144.99;51.83;52215.75;5067547;28;20003;-64
2021/07/19 09:09:45;;;;;;;;;;;;;;;-144.99;51.52;52179.06;5067124;28;19972;-64
2021/07/19 09:12:11;;;;;;;;;;;;;;;-144.99;51.65;52227.97;5067812;28;19925;-64
2021/07/19 09:14:41;;;;;;;;;;;;;;;-144.99;51.27;52187.19;5067709;28;19979;-64
2021/07/19 09:17:20;;;;;;;;;;;;;;;-144.99;51.34;52191.28;5066058;28;19924;-64
2021/07/19 09:19:49;;;;;;;;;;;;;;;-144.99;50.80;52207.59;5066024;28;20213;-64
2021/07/19 09:22:22;;;;;;;;;;;;;;;-144.99;50.49;52203.50;5066287;28;20027;-64
2021/07/19 09:24:48;;;;;;;;;;;;;;;-144.99;50.15;52170.91;5065281;28;19931;-64
2021/07/19 09:27:17;;;;;;;;;;;;;;;-144.99;50.07;52211.66;5057949;28;20209;-63
2021/07/19 09:29:45;;;;;;;;;;;;;;;-144.99;50.28;52154.59;5065730;28;20301;-64
2021/07/19 09:32:12;;;;;;;;;;;;;;;-144.99;50.53;52203.50;5069584;28;19928;-64
2021/07/19 09:34:41;;;;;;;;;;;;;;;-144.99;51.07;52195.34;5070267;28;19924;-64
2021/07/19 09:37:08;;;;;;;;;;;;;;;-144.99;51.19;52227.97;5069336;28;20329;-64
2021/07/19 09:39:41;;;;;;;;;;;;;;;-144.99;51.56;52187.19;5069693;28;19929;-64
2021/07/19 09:42:08;;;;;;;;;;;;;;;-144.99;51.75;52211.66;5066323;28;19935;-64
2021/07/19 09:44:35;;;;;;;;;;;;;;;-144.99;51.78;52185.16;5070604;28;19994;-64
2021/07/19 09:47:06;;;;;;;;;;;;;;;-144.99;51.50;52203.50;5068264;28;20399;-65
2021/07/19 09:49:33;;;;;;;;;;;;;;;-144.99;50.94;52227.97;5067458;28;19932;-65
2021/07/19 09:52:01;;;;;;;;;;;;;;;-144.99;51.57;52187.19;5068509;28;19924;-65
2021/07/19 09:54:41;;;;;;;;;;;;;;;-144.99;51.00;52240.19;5064528;28;19964;-65
2021/07/19 09:57:08;;;;;;;;;;;;;;;-144.99;51.49;52199.44;5067445;28;19940;-64
2021/07/19 09:59:37;;;;;;;;;;;;;;;-144.99;51.73;52185.16;5069794;28;20050;-64
2021/07/19 10:02:07;;;;;;;;;;;;;;;-144.99;51.85;52211.66;5068793;28;19983;-64
2021/07/19 10:04:41;;;;;;;;;;;;;;;-144.99;51.94;52195.34;5066527;28;19955;-64
2021/07/19 10:07:08;;;;;;;;;;;;;;;-144.99;52.06;52179.06;5067864;28;19932;-63
2021/07/19 10:09:37;;;;;;;;;;;;;;;-144.99;51.92;52183.13;5069447;28;20329;-64
2021/07/19 10:12:05;;;;;;;;;;;;;;;-144.99;51.94;52193.31;5069261;28;19975;-64
2021/07/19 10:14:33;;;;;;;;;;;;;;;-144.99;51.56;52195.34;5067649;28;19997;-64
2021/07/19 10:17:03;;;;;;;;;;;;;;;-144.99;51.29;52174.97;5058452;28;19975;-65
2021/07/19 10:19:34;;;;;;;;;;;;;;;-144.99;51.22;52219.81;5065190;28;19924;-64
2021/07/19 10:22:01;;;;;;;;;;;;;;;-144.99;50.88;52187.19;5062839;28;19925;-65
2021/07/19 10:24:27;;;;;;;;;;;;;;;-144.99;50.38;52146.44;5068367;28;20019;-65
2021/07/19 10:26:54;;;;;;;;;;;;;;;-144.99;51.03;52207.59;5069514;28;19955;-65
2021/07/19 10:29:20;;;;;;;;;;;;;;;-144.99;51.35;52170.91;5067122;28;19987;-66
2021/07/19 10:31:47;;;;;;;;;;;;;;;-144.99;52.45;52195.34;5066869;28;20399;-64
2021/07/19 10:34:14;;;;;;;;;;;;;;;-144.99;52.94;52207.59;5061200;28;20395;-65
2021/07/19 10:36:46;;;;;;;;;;;;;;;-144.99;52.86;52211.66;5071957;28;19928;-64
2021/07/19 10:39:14;;;;;;;;;;;;;;;-144.99;53.13;52187.19;5059399;28;19924;-65
2021/07/19 10:41:40;;;;;;;;;;;;;;;-144.99;53.44;52236.13;5069787;28;19950;-65
2021/07/19 10:44:08;;;;;;;;;;;;;;;-144.99;53.88;52187.19;5067119;28;19932;-65
2021/07/19 10:46:35;;;;;;;;;;;;;;;-144.99;54.43;52232.03;5065416;28;20015;-65
2021/07/19 10:49:03;;;;;;;;;;;;;;;-144.99;55.24;52219.81;5068661;28;19928;-65
2021/07/19 10:51:38;;;;;;;;;;;;;;;-144.99;55.66;52201.47;5061889;28;20007;-65
2021/07/19 10:54:12;;;;;;;;;;;;;;;-144.99;55.89;52223.88;5065440;28;19931;-64
2021/07/19 10:56:38;;;;;;;;;;;;;;;-144.99;56.09;52240.19;5066967;28;19924;-64
2021/07/19 10:59:05;;;;;;;;;;;;;;;-144.99;56.07;52248.34;5070446;28;20049;-64
2021/07/19 11:01:32;;;;;;;;;;;;;;;-144.99;56.19;52203.50;4718869;28;9999615;-64
2021/07/19 11:03:59;;;;;;;;;;;;;;;-144.99;56.07;52219.81;5069668;28;20022;-65
2021/07/19 11:06:33;;;;;;;;;;;;;;;-144.99;56.41;52172.94;5067918;28;19946;-64
2021/07/19 11:09:00;;;;;;;;;;;;;;;-144.99;55.82;52187.19;5068492;28;19928;-64
2021/07/19 11:11:29;;;;;;;;;;;;;;;-144.99;55.54;52195.34;5088234;22;19928;-73
2021/07/19 11:13:56;;;;;;;;;;;;;;;-144.99;55.24;52205.53;5083634;28;19950;-69
2021/07/19 11:16:23;;;;;;;;;;;;;;;-144.99;55.48;52183.13;5083275;28;19928;-71
2021/07/19 11:18:54;;;;;;;;;;;;;;;-144.99;55.76;52209.63;5083380;28;20001;-72
2021/07/19 11:21:23;;;;;;;;;;;;;;;-144.99;55.02;52154.59;5084033;28;19928;-71
2021/07/19 11:23:50;;;;;;;;;;;;;;;-144.99;54.79;52207.59;5084642;28;19954;-71
2021/07/19 11:26:20;;;;;;;;;;;;;;;-144.99;54.31;52207.59;5085013;28;19936;-72
2021/07/19 11:28:47;;;;;;;;;;;;;;;-144.99;53.00;52207.59;5083613;28;19928;-72
2021/07/19 11:31:15;;;;;;;;;;;;;;;-144.99;52.35;52166.81;5077094;28;19925;-72
2021/07/19 11:33:43;;;;;;;;;;;;;;;-144.99;52.03;52158.66;5080571;28;20031;-71
2021/07/19 11:36:16;;;;;;;;;;;;;;;-144.99;50.62;52130.13;5075546;28;19928;-71
2021/07/19 11:38:43;;;;;;;;;;;;;;;-144.99;50.88;52158.66;5083494;28;19935;-72
2021/07/19 11:41:13;;;;;;;;;;;;;;;-144.99;50.88;52177.00;5084310;28;19928;-73
2021/07/19 11:43:40;;;;;;;;;;;;;;;-144.99;50.80;52146.44;5084314;28;20034;-71
2021/07/19 11:46:08;;;;;;;;;;;;;;;-144.99;50.27;52160.72;5084054;28;19924;-71
2021/07/19 11:48:35;;;;;;;;;;;;;;;-144.99;49.86;52158.66;5073013;28;19931;-71
2021/07/19 11:51:01;;;;;;;;;;;;;;;-144.99;49.82;52142.38;5080073;28;19950;-71
2021/07/19 11:53:28;;;;;;;;;;;;;;;-144.99;49.33;52134.22;5078615;28;19938;-70
2021/07/19 11:55:54;;;;;;;;;;;;;;;-144.99;49.72;52134.22;5081464;28;19934;-71
2021/07/19 11:58:21;;;;;;;;;;;;;;;-144.99;49.93;52170.91;5083188;28;20684;-71
2021/07/19 12:00:47;;;;;;;;;;;;;;;-144.99;50.14;52119.94;5092359;28;19928;-71
2021/07/19 12:03:16;;;;;;;;;;;;;;;-144.99;49.53;52124.03;5076875;28;20717;-72
2021/07/19 12:05:50;;;;;;;;;;;;;;;-144.99;48.88;52158.66;5076470;28;20030;-70
2021/07/19 12:08:16;;;;;;;;;;;;;;;-144.99;48.75;52130.13;5081382;28;19927;-71
2021/07/19 12:10:42;;;;;;;;;;;;;;;-144.99;49.96;52146.44;5080201;28;20035;-72
2021/07/19 12:13:10;;;;;;;;;;;;;;;-144.99;49.62;52138.28;5081907;28;19928;-72
2021/07/19 12:15:37;;;;;;;;;;;;;;;-144.99;49.58;52154.59;5076345;28;20028;-71
2021/07/19 12:18:03;;;;;;;;;;;;;;;-144.99;49.44;52134.22;5082041;28;20028;-72
2021/07/19 12:20:34;;;;;;;;;;;;;;;-144.99;48.84;52158.66;5074814;28;20115;-72
2021/07/19 12:23:01;;;;;;;;;;;;;;;-144.99;48.69;52117.91;5080441;28;19924;-71
2021/07/19 12:25:27;;;;;;;;;;;;;;;-144.99;49.02;52150.53;5080685;28;20444;-72
2021/07/19 12:28:00;;;;;;;;;;;;;;;-144.99;49.09;52162.75;5083003;28;19928;-70